Time;durP1;ratioP1;P1;durP2;ratioP2;P2;SDS_P1;SDS_P2;PMS_P1;PMS_P2;Temp;Humidity;BMP_temperature;BMP_pressure;BME280_temperature;BME280_humidity;BME280_pressure;Samples;Min_cycle;Max_cycle;Signal;HPM_P1;HPM_P2
2022/01/18 00:00:27;;;;;;;25.93;16.73;;;10.70;60.20;;;;;;5047569;28;20958;-52
2022/01/18 00:02:53;;;;;;;21.93;14.90;;;10.70;60.40;;;;;;5048709;28;20434;-52
2022/01/18 00:05:19;;;;;;;24.50;15.13;;;10.80;60.50;;;;;;5053953;28;20524;-54
2022/01/18 00:07:46;;;;;;;21.40;13.60;;;10.80;60.40;;;;;;5050666;28;20444;-50
2022/01/18 00:10:12;;;;;;;19.97;12.50;;;10.80;60.30;;;;;;5060322;28;20224;-51
2022/01/18 00:18:05;;;;;;;18.27;13.10;;;10.90;60.00;;;;;;5053017;28;20545;-49
2022/01/18 00:23:19;;;;;;;18.57;12.60;;;10.80;60.20;;;;;;5047621;28;20438;-50
2022/01/18 00:25:49;;;;;;;16.63;12.43;;;10.90;60.30;;;;;;5043414;28;20487;-49
2022/01/18 00:28:15;;;;;;;15.10;11.80;;;10.80;60.20;;;;;;5048436;28;22285;-51
2022/01/18 00:35:44;;;;;;;13.70;10.57;;;10.80;60.30;;;;;;5052106;28;20519;-50
2022/01/18 00:38:30;;;;;;;17.17;11.67;;;10.80;60.30;;;;;;5040187;28;20437;-50
2022/01/18 00:40:57;;;;;;;15.87;12.23;;;10.80;60.20;;;;;;5052565;28;20443;-51
2022/01/18 00:43:23;;;;;;;15.67;12.03;;;10.80;60.10;;;;;;5047357;28;20465;-53
2022/01/18 00:45:48;;;;;;;17.80;12.27;;;10.80;60.10;;;;;;5052452;28;20494;-53
2022/01/18 00:48:14;;;;;;;19.90;11.00;;;10.80;60.30;;;;;;5049412;28;20192;-50
2022/01/18 00:50:40;;;;;;;20.77;11.50;;;10.80;60.30;;;;;;5044960;28;20235;-49
2022/01/18 00:53:10;;;;;;;18.00;11.47;;;10.80;60.20;;;;;;5045302;28;20195;-50
2022/01/18 00:55:47;;;;;;;14.87;11.07;;;10.80;60.30;;;;;;5053586;28;20496;-49
2022/01/18 00:58:14;;;;;;;14.00;11.20;;;10.80;60.20;;;;;;5049826;28;20442;-51
2022/01/18 01:00:39;;;;;;;12.67;10.70;;;10.80;60.30;;;;;;5045614;28;20477;-49
2022/01/18 01:03:05;;;;;;;13.97;11.47;;;10.80;60.30;;;;;;5046060;28;20483;-51
2022/01/18 01:05:30;;;;;;;19.73;12.40;;;10.80;60.30;;;;;;5053400;28;20219;-49
2022/01/18 01:07:56;;;;;;;14.70;11.43;;;10.80;60.20;;;;;;5053639;28;20199;-50
2022/01/18 01:10:22;;;;;;;14.87;12.37;;;10.80;60.20;;;;;;5044250;28;20258;-51
2022/01/18 01:12:48;;;;;;;16.00;12.50;;;10.80;60.20;;;;;;5046336;28;20224;-52
2022/01/18 01:15:16;;;;;;;14.40;11.27;;;10.80;60.30;;;;;;5049196;28;20279;-50
2022/01/18 01:17:52;;;;;;;19.63;12.23;;;10.80;60.40;;;;;;5048915;28;20199;-51
2022/01/18 01:34:33;;;;;;;15.57;12.33;;;10.80;60.40;;;;;;5054572;28;20461;-50
2022/01/18 01:44:40;;;;;;;16.47;13.10;;;10.80;60.80;;;;;;5050305;28;20498;-50
2022/01/18 01:47:06;;;;;;;18.30;12.37;;;10.80;60.90;;;;;;5043396;28;20451;-50
2022/01/18 01:49:32;;;;;;;17.47;12.60;;;10.80;61.20;;;;;;5053117;28;20478;-50
2022/01/18 01:51:58;;;;;;;16.23;12.60;;;10.70;61.20;;;;;;5039876;28;20443;-51
2022/01/18 01:54:23;;;;;;;18.47;12.53;;;10.70;61.50;;;;;;5046829;28;20188;-49
2022/01/18 01:56:49;;;;;;;16.40;13.40;;;10.70;61.70;;;;;;5043093;28;20197;-50
2022/01/18 01:59:15;;;;;;;17.43;12.67;;;10.70;61.70;;;;;;5048627;28;20192;-50
2022/01/18 02:01:45;;;;;;;22.50;13.90;;;10.70;61.50;;;;;;5048879;28;20183;-50
2022/01/18 02:04:11;;;;;;;18.83;13.43;;;10.70;61.70;;;;;;5054997;28;20273;-51
2022/01/18 02:06:37;;;;;;;18.20;13.70;;;10.70;61.70;;;;;;5044311;28;20446;-50
2022/01/18 02:09:04;;;;;;;20.80;13.07;;;10.70;61.90;;;;;;5043437;28;20513;-50
2022/01/18 02:11:30;;;;;;;18.80;13.80;;;10.80;62.10;;;;;;5044047;28;20555;-50
2022/01/18 02:13:57;;;;;;;20.47;14.70;;;10.80;61.80;;;;;;5049870;28;20517;-50
2022/01/18 02:21:52;;;;;;;18.47;12.77;;;10.80;61.50;;;;;;5050830;28;20473;-53
2022/01/18 02:24:20;;;;;;;20.27;14.07;;;10.80;61.60;;;;;;5059523;28;20487;-50
2022/01/18 02:26:45;;;;;;;16.13;12.30;;;10.80;61.40;;;;;;5047013;28;20447;-50
2022/01/18 02:29:11;;;;;;;19.50;13.87;;;10.80;61.30;;;;;;5038542;28;20443;-50
2022/01/18 02:31:38;;;;;;;20.13;15.43;;;10.80;61.40;;;;;;5040477;28;20216;-49
2022/01/18 02:34:11;;;;;;;20.80;14.27;;;10.80;61.60;;;;;;5046062;28;20776;-51
2022/01/18 02:36:37;;;;;;;15.80;12.77;;;10.80;61.70;;;;;;5045593;28;20451;-50
2022/01/18 02:39:04;;;;;;;20.27;15.10;;;10.80;61.60;;;;;;5053432;28;20442;-50
2022/01/18 02:41:31;;;;;;;18.53;13.13;;;10.80;61.70;;;;;;5044680;28;20473;-50
2022/01/18 02:44:01;;;;;;;19.90;14.00;;;10.80;61.80;;;;;;5049521;28;20857;-51
2022/01/18 02:46:27;;;;;;;17.80;12.90;;;10.80;61.80;;;;;;5043981;28;20445;-50
2022/01/18 02:48:57;;;;;;;18.60;13.87;;;10.80;61.70;;;;;;5054134;28;20529;-52
2022/01/18 02:51:23;;;;;;;16.90;13.07;;;10.80;61.70;;;;;;5048705;28;20455;-50
2022/01/18 02:53:57;;;;;;;23.37;13.43;;;10.80;61.60;;;;;;5042864;28;20439;-50
2022/01/18 02:56:28;;;;;;;17.23;13.83;;;10.80;61.60;;;;;;5047184;28;20438;-50
2022/01/18 02:59:01;;;;;;;20.70;14.20;;;10.80;61.40;;;;;;5040961;28;20511;-53
2022/01/18 03:04:12;;;;;;;21.63;13.73;;;10.90;61.40;;;;;;5045017;28;20509;-51
2022/01/18 03:06:38;;;;;;;23.40;15.37;;;10.80;61.20;;;;;;5045142;28;20927;-49
2022/01/18 03:09:03;;;;;;;20.80;12.83;;;10.80;61.20;;;;;;5044427;28;20276;-50
2022/01/18 03:11:29;;;;;;;19.03;13.53;;;10.80;61.10;;;;;;5037273;28;20194;-50
2022/01/18 03:13:55;;;;;;;19.10;13.63;;;10.80;61.20;;;;;;5041528;28;20232;-50
2022/01/18 03:16:20;;;;;;;20.23;13.80;;;10.90;61.60;;;;;;5037053;28;20956;-50
2022/01/18 03:18:46;;;;;;;18.40;13.60;;;10.90;61.50;;;;;;5046680;28;20276;-50
2022/01/18 03:21:11;;;;;;;18.90;13.90;;;10.90;61.30;;;;;;5040623;28;20317;-51
2022/01/18 03:23:37;;;;;;;19.53;13.20;;;10.90;61.30;;;;;;5049042;28;20244;-51
2022/01/18 03:26:04;;;;;;;17.57;13.40;;;10.90;61.30;;;;;;5041160;28;20575;-54
2022/01/18 03:28:30;;;;;;;17.17;12.23;;;10.90;61.30;;;;;;5049310;28;20197;-50
2022/01/18 03:30:59;;;;;;;17.80;13.13;;;10.90;61.30;;;;;;5040908;28;20581;-50
2022/01/18 03:33:28;;;;;;;19.83;14.50;;;10.90;60.80;;;;;;5043207;28;20194;-52
2022/01/18 03:35:54;;;;;;;27.60;14.67;;;10.90;60.70;;;;;;5046073;28;21223;-51
2022/01/18 03:38:22;;;;;;;19.30;14.63;;;10.90;60.70;;;;;;5057925;28;20503;-50
2022/01/18 03:40:48;;;;;;;19.00;13.50;;;10.90;60.50;;;;;;5043925;28;20431;-53
2022/01/18 03:43:14;;;;;;;19.57;13.17;;;10.90;60.50;;;;;;5044933;28;20437;-51
2022/01/18 03:45:45;;;;;;;18.13;13.20;;;10.90;60.40;;;;;;5035591;28;20573;-52
2022/01/18 03:48:37;;;;;;;22.33;14.60;;;10.90;60.60;;;;;;5040304;28;21183;-53
2022/01/18 03:51:05;;;;;;;18.40;13.67;;;10.90;60.60;;;;;;5049042;28;20454;-50
2022/01/18 03:53:31;;;;;;;20.30;13.17;;;10.90;60.60;;;;;;5055953;28;21250;-53
2022/01/18 03:55:57;;;;;;;17.77;13.33;;;10.80;60.90;;;;;;5042237;28;20444;-50
2022/01/18 03:58:23;;;;;;;19.43;13.37;;;10.80;61.20;;;;;;5046406;28;20482;-52
2022/01/18 04:00:50;;;;;;;18.00;13.23;;;10.80;61.20;;;;;;5045502;28;20482;-53
2022/01/18 04:03:16;;;;;;;18.23;11.93;;;10.80;61.40;;;;;;5043750;28;20220;-50
2022/01/18 04:05:42;;;;;;;19.27;13.80;;;10.80;61.40;;;;;;5048847;28;20526;-52
2022/01/18 04:08:08;;;;;;;23.53;13.63;;;10.80;61.20;;;;;;5050816;28;20465;-53
2022/01/18 04:10:34;;;;;;;18.37;13.67;;;10.80;61.30;;;;;;5054943;28;20267;-51
2022/01/18 04:12:59;;;;;;;19.23;12.60;;;10.80;61.20;;;;;;5050378;28;20204;-50
2022/01/18 04:15:25;;;;;;;17.50;13.00;;;10.80;61.20;;;;;;5043082;28;20494;-53
2022/01/18 04:18:08;;;;;;;17.77;13.47;;;10.80;61.10;;;;;;5045199;28;20196;-53
2022/01/18 04:28:49;;;;;;;19.07;13.60;;;10.80;61.70;;;;;;5044853;28;20956;-53
2022/01/18 04:31:15;;;;;;;20.23;14.80;;;10.80;61.50;;;;;;5052151;28;20570;-52
2022/01/18 04:33:41;;;;;;;18.37;13.90;;;10.80;61.50;;;;;;5058926;28;20906;-53
2022/01/18 04:36:08;;;;;;;18.20;13.73;;;10.80;61.50;;;;;;5043093;28;20239;-53
2022/01/18 04:38:34;;;;;;;15.50;13.00;;;10.80;61.40;;;;;;5053942;28;20286;-54
2022/01/18 04:41:13;;;;;;;18.20;13.47;;;10.80;61.40;;;;;;5053417;28;20447;-54
2022/01/18 04:48:59;;;;;;;17.07;12.77;;;10.90;61.50;;;;;;5050135;28;20908;-53
2022/01/18 04:51:25;;;;;;;17.90;13.00;;;10.80;61.50;;;;;;5048482;28;20439;-53
2022/01/18 04:53:55;;;;;;;18.27;13.03;;;10.80;61.70;;;;;;5045850;28;20941;-54
2022/01/18 04:56:29;;;;;;;16.00;13.07;;;10.90;61.70;;;;;;5042699;28;20659;-52
2022/01/18 04:58:56;;;;;;;17.53;12.90;;;10.80;61.50;;;;;;5034650;28;20788;-54
2022/01/18 05:01:22;;;;;;;18.00;12.90;;;10.80;61.50;;;;;;5045764;28;20525;-52
2022/01/18 05:03:48;;;;;;;17.90;13.70;;;10.80;61.40;;;;;;5041251;28;20543;-50
2022/01/18 05:06:17;;;;;;;20.73;14.53;;;10.80;61.40;;;;;;5047638;28;20591;-53
2022/01/18 05:08:42;;;;;;;19.53;14.13;;;10.80;61.40;;;;;;5038287;28;20244;-53
2022/01/18 05:11:12;;;;;;;23.13;15.37;;;10.80;61.40;;;;;;5045947;28;20456;-52
2022/01/18 05:19:39;;;;;;;24.60;16.57;;;10.80;61.70;;;;;;5045503;28;20446;-53
2022/01/18 05:24:19;;;;;;;21.10;14.53;;;10.80;61.60;;;;;;5046319;28;20982;-53
2022/01/18 05:26:45;;;;;;;21.23;16.10;;;10.80;61.30;;;;;;5048462;28;20472;-50
2022/01/18 05:29:10;;;;;;;22.53;14.43;;;10.80;61.20;;;;;;5049099;28;20492;-53
2022/01/18 05:31:36;;;;;;;23.60;16.90;;;10.80;61.20;;;;;;5055012;28;20197;-53
2022/01/18 05:34:01;;;;;;;23.10;15.27;;;10.80;61.10;;;;;;5050208;28;20197;-52
2022/01/18 05:36:28;;;;;;;22.80;16.10;;;10.80;61.10;;;;;;5049011;28;20279;-51
2022/01/18 05:38:54;;;;;;;26.53;16.30;;;10.80;61.10;;;;;;5040398;28;20189;-52
2022/01/18 05:41:19;;;;;;;22.57;15.40;;;10.80;61.10;;;;;;5054368;28;20502;-52
2022/01/18 05:43:45;;;;;;;20.23;13.43;;;10.80;61.00;;;;;;5045715;28;20197;-53
2022/01/18 05:46:10;;;;;;;24.87;16.60;;;10.80;61.00;;;;;;5040893;28;20268;-53
2022/01/18 05:48:36;;;;;;;21.37;14.57;;;10.80;60.90;;;;;;5049778;28;20196;-53
2022/01/18 05:51:02;;;;;;;21.10;15.50;;;10.70;60.80;;;;;;5046194;28;20196;-53
2022/01/18 05:53:29;;;;;;;25.50;16.00;;;10.70;60.90;;;;;;5042514;28;20201;-53
2022/01/18 05:55:54;;;;;;;22.90;15.83;;;10.70;61.20;;;;;;5032232;28;20196;-54
2022/01/18 05:58:20;;;;;;;21.77;14.50;;;10.70;61.20;;;;;;5043344;28;20442;-53
2022/01/18 06:00:52;;;;;;;21.90;15.83;;;10.70;60.90;;;;;;5043138;28;20291;-51
2022/01/18 06:03:26;;;;;;;24.90;17.03;;;10.80;61.20;;;;;;5048534;28;20258;-51
2022/01/18 06:08:37;;;;;;;23.70;16.70;;;10.70;61.20;;;;;;5039471;28;20437;-49
2022/01/18 06:11:03;;;;;;;27.33;17.07;;;10.80;61.20;;;;;;5047654;28;20816;-50
2022/01/18 06:13:29;;;;;;;20.30;11.80;;;10.80;61.10;;;;;;5045561;28;20212;-52
2022/01/18 06:15:54;;;;;;;23.53;17.23;;;10.80;61.20;;;;;;5037932;28;20188;-52
2022/01/18 06:18:20;;;;;;;21.77;14.63;;;10.90;62.50;;;;;;5042225;28;20440;-51
2022/01/18 06:20:45;;;;;;;21.83;15.23;;;11.20;62.80;;;;;;5043505;28;20223;-49
2022/01/18 06:23:13;;;;;;;20.93;15.10;;;11.50;62.20;;;;;;5046094;28;20626;-49
2022/01/18 06:25:40;;;;;;;22.00;15.43;;;11.70;61.40;;;;;;5046615;28;20346;-52
2022/01/18 06:28:06;;;;;;;25.53;16.63;;;11.90;60.40;;;;;;5046660;28;20458;-49
2022/01/18 06:30:31;;;;;;;21.80;15.17;;;12.10;59.70;;;;;;5048716;28;20845;-52
2022/01/18 06:32:57;;;;;;;20.00;15.20;;;12.20;59.00;;;;;;5049944;28;20592;-52
2022/01/18 06:35:22;;;;;;;20.20;14.43;;;12.30;58.30;;;;;;5035713;28;20201;-52
2022/01/18 06:37:48;;;;;;;21.43;14.23;;;12.40;57.60;;;;;;5031940;28;20197;-51
2022/01/18 06:40:14;;;;;;;23.30;16.13;;;12.50;57.30;;;;;;5045711;28;20185;-51
2022/01/18 06:42:39;;;;;;;23.20;16.27;;;12.50;57.00;;;;;;5047887;28;20192;-53
2022/01/18 06:45:07;;;;;;;21.30;14.53;;;12.60;56.70;;;;;;5046272;28;20252;-51
2022/01/18 06:47:32;;;;;;;20.60;15.53;;;12.60;56.60;;;;;;5042319;28;20678;-49
2022/01/18 06:49:58;;;;;;;23.70;15.77;;;12.60;56.40;;;;;;5044314;28;20439;-49
2022/01/18 06:52:24;;;;;;;19.67;14.73;;;12.70;56.40;;;;;;5045757;28;20188;-52
2022/01/18 06:54:50;;;;;;;21.93;16.40;;;12.70;56.30;;;;;;5044614;28;20193;-49
2022/01/18 06:57:16;;;;;;;25.37;15.90;;;12.70;56.20;;;;;;5041116;28;20204;-51
2022/01/18 06:59:41;;;;;;;22.60;15.50;;;12.70;55.90;;;;;;5052760;28;20435;-48
2022/01/18 07:02:07;;;;;;;24.20;16.07;;;12.70;55.60;;;;;;5042689;28;20710;-53
2022/01/18 07:04:32;;;;;;;21.83;15.60;;;12.70;55.50;;;;;;5040858;28;20279;-49
2022/01/18 07:06:58;;;;;;;19.73;15.80;;;12.70;55.40;;;;;;5042862;28;20624;-52
2022/01/18 07:09:24;;;;;;;21.93;15.33;;;12.80;55.60;;;;;;5043345;28;20242;-48
2022/01/18 07:11:56;;;;;;;22.07;16.30;;;12.80;55.50;;;;;;5044457;28;20659;-50
2022/01/18 07:14:23;;;;;;;21.20;16.53;;;12.80;55.10;;;;;;5047542;28;20200;-53
2022/01/18 07:16:49;;;;;;;23.70;17.00;;;12.80;54.90;;;;;;5050618;28;20446;-51
2022/01/18 07:19:15;;;;;;;22.37;16.73;;;12.70;55.10;;;;;;5049492;28;20511;-49
2022/01/18 07:21:42;;;;;;;21.37;15.23;;;12.60;55.30;;;;;;5051737;28;20451;-49
2022/01/18 07:24:24;;;;;;;22.97;15.70;;;12.60;55.40;;;;;;5051968;28;20473;-53
2022/01/18 07:26:50;;;;;;;24.50;16.67;;;12.50;55.50;;;;;;5043450;28;20542;-51
2022/01/18 07:29:18;;;;;;;22.40;17.53;;;12.50;55.60;;;;;;5042959;28;20998;-49
2022/01/18 07:31:44;;;;;;;20.80;15.37;;;12.50;55.40;;;;;;5045819;28;20223;-50
2022/01/18 07:34:13;;;;;;;26.10;16.93;;;12.50;55.70;;;;;;5048611;28;20444;-52
2022/01/18 07:36:39;;;;;;;26.17;16.53;;;12.60;55.70;;;;;;5040234;28;20193;-48
2022/01/18 07:39:05;;;;;;;23.20;16.73;;;12.60;55.30;;;;;;5044857;28;20814;-52
2022/01/18 07:41:33;;;;;;;21.13;16.10;;;12.60;55.10;;;;;;5046673;28;20915;-53
2022/01/18 07:43:59;;;;;;;19.53;12.47;;;12.60;55.20;;;;;;5047929;28;20218;-50
2022/01/18 07:46:24;;;;;;;21.47;14.33;;;12.70;56.10;;;;;;5049091;28;20434;-45
2022/01/18 07:48:50;;;;;;;23.37;15.30;;;12.90;57.30;;;;;;5042283;28;20196;-49
2022/01/18 07:51:16;;;;;;;19.67;14.30;;;13.30;55.60;;;;;;5042775;28;20298;-51
2022/01/18 07:53:42;;;;;;;23.13;15.25;;;13.70;54.70;;;;;;5045237;28;20421;-50
2022/01/18 07:56:07;;;;;;;21.80;15.77;;;14.00;53.00;;;;;;5047862;28;20288;-50
2022/01/18 07:58:33;;;;;;;18.70;15.27;;;14.10;52.30;;;;;;5037866;28;20439;-49
2022/01/18 08:01:00;;;;;;;22.67;16.40;;;14.10;52.00;;;;;;5038098;28;20237;-49
2022/01/18 08:03:27;;;;;;;23.37;16.33;;;14.00;51.50;;;;;;5049389;28;20196;-53
2022/01/18 08:05:53;;;;;;;21.67;15.50;;;13.90;51.60;;;;;;5042431;28;20848;-52
2022/01/18 08:08:19;;;;;;;26.27;18.03;;;13.70;51.80;;;;;;5043596;28;20471;-50
2022/01/18 08:10:44;;;;;;;26.23;16.77;;;13.50;52.10;;;;;;5040589;28;20435;-49
2022/01/18 08:13:10;;;;;;;25.07;17.40;;;13.40;52.40;;;;;;5038379;28;20200;-50
2022/01/18 08:15:38;;;;;;;25.07;17.47;;;13.30;52.80;;;;;;5046387;28;20205;-51
2022/01/18 08:18:06;;;;;;;29.97;20.93;;;13.20;52.90;;;;;;5046418;28;20200;-49
2022/01/18 08:20:32;;;;;;;26.43;18.40;;;13.10;53.20;;;;;;5044405;28;20459;-49
2022/01/18 08:22:57;;;;;;;28.83;19.97;;;13.00;53.30;;;;;;5047100;28;20543;-49
2022/01/18 08:25:23;;;;;;;26.50;19.00;;;12.90;53.70;;;;;;5051881;28;20233;-50
2022/01/18 08:27:49;;;;;;;33.80;19.73;;;12.90;53.70;;;;;;5049210;28;20652;-53
2022/01/18 08:30:17;;;;;;;30.50;21.07;;;12.80;53.70;;;;;;5043666;28;20917;-51
2022/01/18 08:32:43;;;;;;;24.43;15.37;;;12.70;54.20;;;;;;5043607;28;20439;-50
2022/01/18 08:35:09;;;;;;;23.80;17.23;;;12.70;54.90;;;;;;5043807;28;21073;-47
2022/01/18 08:37:35;;;;;;;24.30;15.20;;;12.70;55.40;;;;;;5048368;28;20442;-47
2022/01/18 08:40:01;;;;;;;24.00;17.20;;;12.70;55.40;;;;;;5046217;28;20435;-48
2022/01/18 08:42:26;;;;;;;26.23;17.37;;;12.70;55.30;;;;;;5043159;28;20567;-49
2022/01/18 08:44:53;;;;;;;24.47;17.40;;;12.60;55.30;;;;;;5049767;28;20236;-50
2022/01/18 08:47:20;;;;;;;24.57;16.47;;;12.70;55.40;;;;;;5044084;28;20211;-49
2022/01/18 08:49:46;;;;;;;21.47;14.73;;;12.70;55.60;;;;;;5050596;28;21006;-48
2022/01/18 08:52:13;;;;;;;23.67;14.77;;;12.80;55.40;;;;;;5039407;28;20493;-49
2022/01/18 08:54:39;;;;;;;24.60;14.50;;;12.90;55.40;;;;;;5049579;28;20439;-53
2022/01/18 08:57:05;;;;;;;22.73;15.50;;;13.00;55.00;;;;;;5045139;28;20919;-47
2022/01/18 08:59:35;;;;;;;18.90;13.60;;;13.10;54.80;;;;;;5048097;28;20442;-48
2022/01/18 09:02:02;;;;;;;18.13;13.27;;;13.10;54.50;;;;;;5040194;28;20653;-52
2022/01/18 09:04:28;;;;;;;19.17;13.53;;;13.10;54.20;;;;;;5043630;28;20962;-49
2022/01/18 09:06:54;;;;;;;20.87;13.33;;;13.20;54.40;;;;;;5045492;28;20438;-50
2022/01/18 09:09:20;;;;;;;19.10;12.40;;;13.30;54.40;;;;;;5048283;28;20200;-52
2022/01/18 09:11:46;;;;;;;21.93;13.67;;;13.20;54.70;;;;;;5044697;28;20435;-48
2022/01/18 09:14:14;;;;;;;17.87;12.50;;;13.30;54.50;;;;;;5042587;28;20833;-48
2022/01/18 09:16:39;;;;;;;17.60;13.00;;;13.40;54.40;;;;;;5035657;28;20805;-49
2022/01/18 09:19:05;;;;;;;19.43;13.40;;;13.40;54.20;;;;;;5044812;28;20443;-49
2022/01/18 09:21:33;;;;;;;16.37;12.50;;;13.40;54.20;;;;;;5034520;28;20630;-52
2022/01/18 09:23:59;;;;;;;18.53;13.70;;;13.40;53.90;;;;;;5044926;28;20242;-50
2022/01/18 09:26:24;;;;;;;18.67;13.63;;;13.30;54.10;;;;;;5045797;28;20443;-48
2022/01/18 09:28:50;;;;;;;22.07;14.90;;;13.40;54.20;;;;;;5046840;28;20489;-49
2022/01/18 09:31:16;;;;;;;20.53;14.40;;;13.50;53.80;;;;;;5039738;28;20197;-50
2022/01/18 09:33:42;;;;;;;16.47;12.03;;;13.60;53.70;;;;;;5039901;28;20438;-51
2022/01/18 09:36:07;;;;;;;21.00;14.30;;;13.40;53.60;;;;;;5047911;28;21118;-52
2022/01/18 09:38:33;;;;;;;20.60;14.57;;;13.50;54.10;;;;;;5035913;28;20212;-50
2022/01/18 09:41:08;;;;;;;20.50;15.53;;;13.60;53.80;;;;;;5050437;28;20565;-53
2022/01/18 09:43:34;;;;;;;26.33;14.90;;;13.70;53.50;;;;;;5037963;28;20285;-52
2022/01/18 09:46:00;;;;;;;22.07;14.80;;;13.70;53.10;;;;;;5039773;28;20482;-52
2022/01/18 09:48:25;;;;;;;19.10;14.37;;;13.80;52.90;;;;;;5039282;28;20455;-52
2022/01/18 09:50:51;;;;;;;23.17;17.00;;;13.90;52.90;;;;;;5046069;28;20196;-52
2022/01/18 09:53:17;;;;;;;23.20;16.27;;;14.00;52.80;;;;;;5047555;28;20280;-51
2022/01/18 09:55:43;;;;;;;28.33;17.93;;;14.10;52.90;;;;;;5040195;28;20193;-52
2022/01/18 09:58:09;;;;;;;21.83;14.73;;;14.30;52.40;;;;;;5033415;28;20431;-50
2022/01/18 10:00:39;;;;;;;19.07;12.97;;;14.50;52.00;;;;;;5045106;28;20188;-52
2022/01/18 10:03:09;;;;;;;21.73;14.07;;;14.80;51.40;;;;;;5043648;28;20442;-53
2022/01/18 10:05:37;;;;;;;23.37;15.60;;;14.90;50.80;;;;;;5038253;28;20483;-51
2022/01/18 10:08:05;;;;;;;25.80;17.07;;;15.00;50.60;;;;;;5031879;28;20817;-53
2022/01/18 10:10:51;;;;;;;27.47;17.40;;;15.00;50.80;;;;;;5041496;28;20431;-53
2022/01/18 10:13:23;;;;;;;22.50;16.10;;;15.10;51.00;;;;;;5038216;28;20450;-53
2022/01/18 10:16:24;;;;;;;23.30;17.20;;;15.20;51.00;;;;;;5046360;28;20427;-52
2022/01/18 10:18:54;;;;;;;16.80;12.80;;;15.40;50.60;;;;;;5013600;28;20536;-53
2022/01/18 10:21:33;;;;;;;15.27;10.87;;;15.20;49.10;;;;;;5030001;28;20455;-53
2022/01/18 10:24:12;;;;;;;15.33;10.33;;;15.20;50.00;;;;;;5043020;28;20837;-52
2022/01/18 10:26:43;;;;;;;18.90;13.60;;;15.40;49.00;;;;;;5036266;28;20451;-52
2022/01/18 10:29:10;;;;;;;14.13;11.17;;;15.60;49.10;;;;;;5039985;28;20435;-52
2022/01/18 10:31:42;;;;;;;19.70;13.37;;;15.80;48.70;;;;;;5031006;28;20466;-50
2022/01/18 10:37:22;;;;;;;14.63;11.07;;;16.10;47.90;;;;;;5045881;28;20451;-53
2022/01/18 10:39:53;;;;;;;14.40;11.53;;;16.20;48.00;;;;;;5047995;28;20446;-50
2022/01/18 10:42:26;;;;;;;16.10;11.67;;;16.10;47.40;;;;;;5045906;28;20833;-52
2022/01/18 10:45:04;;;;;;;18.97;13.20;;;16.20;47.60;;;;;;5042696;28;20478;-52
2022/01/18 10:47:30;;;;;;;16.23;12.30;;;16.30;47.10;;;;;;5036809;28;20455;-52
2022/01/18 10:49:57;;;;;;;13.57;11.10;;;16.20;46.60;;;;;;5046186;28;20438;-52
2022/01/18 10:52:27;;;;;;;14.80;11.40;;;16.20;47.50;;;;;;5047685;28;20814;-51
2022/01/18 10:54:57;;;;;;;23.63;17.10;;;16.10;47.20;;;;;;5042765;28;20467;-52
2022/01/18 10:57:30;;;;;;;17.00;11.00;;;16.20;47.90;;;;;;5046532;28;20455;-52
2022/01/18 11:00:09;;;;;;;13.17;9.70;;;16.20;47.90;;;;;;5042911;28;20455;-52
2022/01/18 11:02:37;;;;;;;10.37;8.13;;;16.30;48.30;;;;;;5047967;28;21194;-51
2022/01/18 11:05:25;;;;;;;10.47;7.57;;;16.40;49.10;;;;;;5052856;28;20498;-52
2022/01/18 11:07:53;;;;;;;9.77;8.10;;;16.70;48.10;;;;;;5041218;28;20504;-53
2022/01/18 11:10:22;;;;;;;11.60;8.53;;;16.80;46.90;;;;;;5042193;28;20471;-52
2022/01/18 11:12:58;;;;;;;11.10;7.77;;;16.80;46.70;;;;;;5039669;28;20493;-53
2022/01/18 11:15:26;;;;;;;10.43;8.53;;;16.90;46.60;;;;;;5045122;28;20438;-50
2022/01/18 11:18:00;;;;;;;11.87;8.43;;;16.80;46.20;;;;;;5047342;28;20435;-52
2022/01/18 11:20:28;;;;;;;10.83;7.80;;;16.70;46.10;;;;;;5053535;28;20496;-49
2022/01/18 11:22:55;;;;;;;10.10;8.10;;;16.50;46.10;;;;;;5044865;28;20443;-49
2022/01/18 11:25:22;;;;;;;11.83;9.43;;;16.30;46.70;;;;;;5049784;28;21016;-53
2022/01/18 11:27:51;;;;;;;13.37;9.67;;;16.10;46.80;;;;;;5042195;28;20439;-51
2022/01/18 11:30:19;;;;;;;10.27;7.87;;;16.00;47.10;;;;;;5045528;28;20474;-49
2022/01/18 11:32:45;;;;;;;9.13;6.77;;;15.80;47.30;;;;;;5044431;28;20471;-52
2022/01/18 11:35:22;;;;;;;7.40;6.13;;;15.60;48.10;;;;;;5039164;28;20435;-52
2022/01/18 11:38:22;;;;;;;8.57;5.73;;;15.60;47.70;;;;;;5032602;28;20466;-52
2022/01/18 11:40:53;;;;;;;8.80;6.20;;;15.50;47.90;;;;;;5048573;28;20444;-53
2022/01/18 11:43:41;;;;;;;9.60;6.30;;;15.30;48.80;;;;;;5043894;28;20454;-53
2022/01/18 11:46:31;;;;;;;10.33;6.67;;;15.40;48.10;;;;;;5042606;28;20489;-52
2022/01/18 11:49:15;;;;;;;7.30;5.00;;;15.30;48.70;;;;;;5042892;28;20455;-51
2022/01/18 11:51:49;;;;;;;7.87;6.20;;;15.30;49.40;;;;;;5049670;28;20477;-52
2022/01/18 11:54:38;;;;;;;5.93;4.40;;;15.40;49.50;;;;;;5039768;28;20467;-51
2022/01/18 11:57:15;;;;;;;6.30;5.10;;;15.40;48.10;;;;;;5047224;28;20443;-53
2022/01/18 11:59:41;;;;;;;8.43;5.20;;;15.30;48.50;;;;;;5046057;28;20447;-48
2022/01/18 12:02:07;;;;;;;7.10;4.87;;;15.20;48.40;;;;;;5040712;28;20443;-53
2022/01/18 12:04:46;;;;;;;6.40;5.03;;;15.30;48.40;;;;;;5052571;28;20594;-53
2022/01/18 12:07:36;;;;;;;5.80;5.17;;;15.30;48.40;;;;;;5050495;28;20431;-48
2022/01/18 12:10:08;;;;;;;7.77;6.10;;;15.30;48.30;;;;;;5035353;28;20439;-49
2022/01/18 12:12:40;;;;;;;15.27;11.30;;;15.10;48.50;;;;;;5046439;28;20450;-52
2022/01/18 12:15:29;;;;;;;11.80;7.40;;;15.00;48.30;;;;;;5056720;28;20443;-52
2022/01/18 12:18:01;;;;;;;10.80;7.20;;;15.00;49.00;;;;;;5037428;28;20458;-53
2022/01/18 12:20:37;;;;;;;10.93;7.20;;;14.90;48.70;;;;;;5049887;28;20478;-53
2022/01/18 12:23:07;;;;;;;10.47;8.20;;;14.80;49.20;;;;;;5048786;28;20436;-53
2022/01/18 12:25:36;;;;;;;6.90;5.70;;;14.60;48.90;;;;;;5047064;28;20505;-51
2022/01/18 12:37:27;;;;;;;5.87;3.37;;;14.10;49.70;;;;;;5044867;28;20458;-52
2022/01/18 12:39:57;;;;;;;3.70;2.97;;;14.00;48.90;;;;;;5036347;28;20869;-51
2022/01/18 12:45:07;;;;;;;3.73;2.63;;;14.00;48.30;;;;;;5044474;28;20966;-52
2022/01/18 12:47:35;;;;;;;5.23;2.60;;;14.10;48.30;;;;;;5043851;28;20474;-53
2022/01/18 12:50:03;;;;;;;3.93;2.63;;;14.30;48.30;;;;;;5045020;28;20508;-51
2022/01/18 12:52:48;;;;;;;3.33;2.97;;;14.40;47.70;;;;;;5047902;28;20457;-51
2022/01/18 12:55:54;;;;;;;4.10;2.67;;;14.20;47.30;;;;;;5045666;28;20442;-49
2022/01/18 12:58:45;;;;;;;3.00;2.60;;;14.40;47.30;;;;;;5046859;28;20446;-53
2022/01/18 13:01:13;;;;;;;4.07;2.67;;;14.60;47.50;;;;;;5056481;28;20439;-53
2022/01/18 13:03:44;;;;;;;3.30;2.60;;;14.50;47.00;;;;;;5044762;28;20439;-53
2022/01/18 13:06:18;;;;;;;3.97;2.60;;;14.70;46.90;;;;;;5047179;28;20586;-52
2022/01/18 13:08:49;;;;;;;4.70;2.83;;;14.90;46.40;;;;;;5066195;28;20521;-54
2022/01/18 13:11:20;;;;;;;4.03;2.37;;;14.90;46.00;;;;;;5037888;28;20930;-52
2022/01/18 13:14:02;;;;;;;4.13;2.80;;;14.50;46.50;;;;;;5045400;28;20744;-48
2022/01/18 13:27:29;;;;;;;6.43;2.23;;;15.30;45.50;;;;;;5049446;28;20451;-52
2022/01/18 13:29:52;;;;;;;3.60;2.27;;;15.20;44.20;;;;;;5040513;28;20803;-48
2022/01/18 13:32:19;;;;;;;2.10;1.90;;;14.90;44.20;;;;;;5047233;28;20439;-49
2022/01/18 13:34:58;;;;;;;5.67;2.43;;;14.70;44.60;;;;;;5050127;28;20435;-49
2022/01/18 13:37:33;;;;;;;3.93;2.13;;;14.70;44.70;;;;;;5031344;28;20809;-49
2022/01/18 13:40:02;;;;;;;2.97;2.00;;;14.80;44.80;;;;;;5036902;28;20478;-52
2022/01/18 13:42:41;;;;;;;4.53;2.13;;;14.80;43.90;;;;;;5040307;28;20440;-52
2022/01/18 13:45:06;;;;;;;3.33;2.00;;;14.80;44.00;;;;;;5043130;28;20971;-49
2022/01/18 13:47:58;;;;;;;3.13;2.07;;;14.90;44.40;;;;;;5037799;28;20439;-49
2022/01/18 13:50:42;;;;;;;2.10;1.67;;;15.00;44.10;;;;;;5044848;28;20204;-48
2022/01/18 13:53:21;;;;;;;2.70;1.80;;;15.20;43.80;;;;;;5045798;28;20830;-48
2022/01/18 13:56:12;;;;;;;2.07;1.83;;;15.20;43.50;;;;;;5046377;28;20789;-53
2022/01/18 13:58:44;;;;;;;3.63;1.53;;;15.20;43.50;;;;;;5049418;28;20446;-52
2022/01/18 14:01:18;;;;;;;2.67;1.90;;;15.10;43.50;;;;;;5038208;28;20434;-48
2022/01/18 14:03:49;;;;;;;2.67;2.30;;;14.80;43.30;;;;;;5048759;28;20438;-52
2022/01/18 14:06:16;;;;;;;2.60;1.77;;;14.90;44.10;;;;;;5057256;28;20491;-51
2022/01/18 14:08:54;;;;;;;3.20;2.07;;;14.90;42.80;;;;;;5043355;28;20439;-50
2022/01/18 14:11:25;;;;;;;2.53;1.80;;;14.80;42.90;;;;;;5042512;28;21403;-48
2022/01/18 14:13:53;;;;;;;3.43;2.17;;;14.70;43.00;;;;;;5036327;28;20478;-53